C6031 KPSM-KPSM
Flight info
| Callsign | C6031 |
|---|---|
| Flight time | 0h 2m |
| Altitude | 2500 |
| Route | / |
| Aircraft | H60/L-VGD/C |
Departure
| Time | 2026-04-24 16:01 |
|---|---|
| Airport | Portsmouth International Airport at Pease (KPSM) |
Arrival
| Time | 2026-04-24 16:03 |
|---|---|
| Airport | Portsmouth International Airport at Pease (KPSM) |
| Time | Latitude | Longitude | Altitude | Speed | Heading |
|---|---|---|---|---|---|
| 2026-04-24 15:35 | 43.08864 | -70.82395 | 96 ft | 0 kts | 148° |
| 2026-04-24 15:41 | 43.08864 | -70.82396 | 96 ft | 0 kts | 148° |
| 2026-04-24 15:43 | 43.08864 | -70.82397 | 96 ft | 0 kts | 131° |
| 2026-04-24 15:44 | 43.08850 | -70.82387 | 96 ft | 5 kts | 168° |
| 2026-04-24 15:44 | 43.08812 | -70.82370 | 96 ft | 7 kts | 163° |
| 2026-04-24 15:44 | 43.08770 | -70.82353 | 95 ft | 5 kts | 168° |
| 2026-04-24 15:44 | 43.08742 | -70.82343 | 95 ft | 4 kts | 162° |
| 2026-04-24 15:45 | 43.08670 | -70.82308 | 93 ft | 14 kts | 160° |
| 2026-04-24 15:45 | 43.08632 | -70.82259 | 95 ft | 4 kts | 104° |
| 2026-04-24 15:45 | 43.08603 | -70.82187 | 152 ft | 11 kts | 149° |
| 2026-04-24 15:45 | 43.08585 | -70.82204 | 162 ft | 2 kts | 208° |
| 2026-04-24 15:46 | 43.08576 | -70.82211 | 227 ft | 2 kts | 203° |
| 2026-04-24 15:46 | 43.08569 | -70.82222 | 287 ft | 1 kts | 202° |
| 2026-04-24 15:46 | 43.08577 | -70.82224 | 163 ft | 14 kts | 201° |
| 2026-04-24 15:46 | 43.08636 | -70.82241 | 120 ft | 7 kts | 197° |
| 2026-04-24 15:47 | 43.08629 | -70.82243 | 118 ft | 2 kts | 191° |
| 2026-04-24 15:47 | 43.08625 | -70.82240 | 110 ft | 0 kts | 186° |
| 2026-04-24 15:47 | 43.08627 | -70.82241 | 110 ft | 0 kts | 185° |
| 2026-04-24 15:47 | 43.08625 | -70.82241 | 112 ft | 0 kts | 185° |
| 2026-04-24 15:48 | 43.08626 | -70.82241 | 114 ft | 0 kts | 185° |
| 2026-04-24 15:48 | 43.08628 | -70.82240 | 115 ft | 0 kts | 185° |
| 2026-04-24 15:48 | 43.08629 | -70.82240 | 114 ft | 0 kts | 185° |
| 2026-04-24 15:48 | 43.08628 | -70.82240 | 105 ft | 0 kts | 185° |
| 2026-04-24 15:49 | 43.08626 | -70.82241 | 102 ft | 1 kts | 185° |
| 2026-04-24 15:49 | 43.08614 | -70.82252 | 173 ft | 7 kts | 180° |
| 2026-04-24 15:49 | 43.08412 | -70.82203 | 283 ft | 70 kts | 178° |
| 2026-04-24 15:49 | 43.07711 | -70.81823 | 400 ft | 131 kts | 158° |
| 2026-04-24 15:50 | 43.06886 | -70.81226 | 266 ft | 126 kts | 150° |
| 2026-04-24 15:50 | 43.06297 | -70.81194 | 391 ft | 42 kts | 12° |
| 2026-04-24 15:50 | 43.06496 | -70.81350 | 232 ft | 78 kts | 359° |
| 2026-04-24 15:50 | 43.07096 | -70.81758 | 136 ft | 109 kts | 331° |
| 2026-04-24 15:51 | 43.07716 | -70.82270 | 122 ft | 104 kts | 330° |
| 2026-04-24 15:51 | 43.08369 | -70.82797 | 105 ft | 107 kts | 330° |
| 2026-04-24 15:51 | 43.08801 | -70.83143 | 106 ft | 41 kts | 327° |
| 2026-04-24 15:51 | 43.08886 | -70.83176 | 102 ft | 26 kts | 327° |
| 2026-04-24 15:52 | 43.08967 | -70.83120 | 95 ft | 6 kts | 55° |
| 2026-04-24 15:52 | 43.08918 | -70.82984 | 133 ft | 38 kts | 106° |
| 2026-04-24 15:52 | 43.08710 | -70.82544 | 147 ft | 59 kts | 100° |
| 2026-04-24 15:52 | 43.08446 | -70.82161 | 122 ft | 46 kts | 99° |
| 2026-04-24 15:53 | 43.08307 | -70.82070 | 89 ft | 5 kts | 79° |
| 2026-04-24 15:53 | 43.08348 | -70.82127 | 88 ft | 17 kts | 317° |
| 2026-04-24 15:53 | 43.08420 | -70.82192 | 89 ft | 8 kts | 324° |
| 2026-04-24 15:53 | 43.08446 | -70.82222 | 89 ft | 1 kts | 315° |
| 2026-04-24 15:54 | 43.08447 | -70.82222 | 89 ft | 0 kts | 315° |
| 2026-04-24 15:56 | 43.08436 | -70.82236 | 107 ft | 7 kts | 296° |
| 2026-04-24 15:56 | 43.08403 | -70.82239 | 115 ft | 5 kts | 195° |
| 2026-04-24 15:56 | 43.08317 | -70.82199 | 158 ft | 24 kts | 145° |
| 2026-04-24 15:57 | 43.08142 | -70.82058 | 177 ft | 37 kts | 140° |
| 2026-04-24 15:57 | 43.07894 | -70.81837 | 220 ft | 37 kts | 141° |
| 2026-04-24 15:57 | 43.07775 | -70.81746 | 197 ft | 26 kts | 140° |
| 2026-04-24 15:57 | 43.07564 | -70.81634 | 172 ft | 30 kts | 139° |
| 2026-04-24 15:58 | 43.07316 | -70.81448 | 192 ft | 44 kts | 140° |
| 2026-04-24 15:58 | 43.07115 | -70.81261 | 234 ft | 43 kts | 138° |
| 2026-04-24 15:58 | 43.06565 | -70.80863 | 307 ft | 125 kts | 150° |
| 2026-04-24 15:58 | 43.05777 | -70.80099 | 356 ft | 148 kts | 139° |
| 2026-04-24 15:59 | 43.05242 | -70.79724 | 579 ft | 40 kts | 277° |
| 2026-04-24 15:59 | 43.05215 | -70.79959 | 432 ft | 58 kts | 273° |
| 2026-04-24 15:59 | 43.05555 | -70.80331 | 525 ft | 29 kts | 319° |
| 2026-04-24 15:59 | 43.05650 | -70.80440 | 374 ft | 15 kts | 304° |
| 2026-04-24 16:00 | 43.05714 | -70.80555 | 323 ft | 14 kts | 296° |
| 2026-04-24 16:00 | 43.05811 | -70.80656 | 305 ft | 31 kts | 335° |
| 2026-04-24 16:00 | 43.06087 | -70.80853 | 293 ft | 66 kts | 327° |
| 2026-04-24 16:00 | 43.06633 | -70.81291 | 228 ft | 112 kts | 333° |
| 2026-04-24 16:01 | 43.07369 | -70.81887 | 182 ft | 133 kts | 331° |
| 2026-04-24 16:01 | 43.08245 | -70.82606 | 294 ft | 159 kts | 330° |
| 2026-04-24 16:01 | 43.09195 | -70.83387 | 724 ft | 153 kts | 330° |
| 2026-04-24 16:01 | 43.10094 | -70.84145 | 1483 ft | 152 kts | 330° |
| 2026-04-24 16:02 | 43.11110 | -70.84860 | 1590 ft | 171 kts | 334° |
| 2026-04-24 16:02 | 43.12113 | -70.85016 | 1461 ft | 139 kts | 35° |
| 2026-04-24 16:02 | 43.12023 | -70.83827 | 1203 ft | 157 kts | 139° |
| 2026-04-24 16:02 | 43.10914 | -70.83316 | 892 ft | 170 kts | 164° |
| 2026-04-24 16:03 | 43.09862 | -70.82873 | 600 ft | 143 kts | 162° |
| 2026-04-24 16:03 | 43.09078 | -70.82504 | 292 ft | 87 kts | 161° |
| 2026-04-24 16:03 | 43.08748 | -70.82321 | 106 ft | 17 kts | 153° |
| 2026-04-24 16:03 | 43.08714 | -70.82297 | 93 ft | 1 kts | 102° |
| 2026-04-24 16:04 | 43.08714 | -70.82296 | 93 ft | 0 kts | 102° |